Time;durP1;ratioP1;P1;durP2;ratioP2;P2;SDS_P1;SDS_P2;PMS_P1;PMS_P2;Temp;Humidity;BMP_temperature;BMP_pressure;BME280_temperature;BME280_humidity;BME280_pressure;Samples;Min_cycle;Max_cycle;Signal;HPM_P1;HPM_P2
2023/05/01 00:02:03;;;;;;;5.20;1.83;;;;;;;;;;5229727;28;20391;-75
2023/05/01 00:04:34;;;;;;;5.40;2.17;;;;;;;;;;5230838;28;20033;-75
2023/05/01 00:07:06;;;;;;;6.20;2.33;;;;;;;;;;5229125;28;20120;-75
2023/05/01 00:09:37;;;;;;;5.10;2.30;;;;;;;;;;5332452;27;20021;-75
2023/05/01 00:12:09;;;;;;;6.67;2.40;;;;;;;;;;5230538;28;20029;-75
2023/05/01 00:14:41;;;;;;;5.97;2.90;;;;;;;;;;5229809;28;20385;-75
2023/05/01 00:17:12;;;;;;;5.00;2.47;;;;;;;;;;5229995;28;20014;-75
2023/05/01 00:19:43;;;;;;;9.47;2.30;;;;;;;;;;5230597;28;20109;-75
2023/05/01 00:22:14;;;;;;;5.60;2.13;;;;;;;;;;5230482;28;20025;-75
2023/05/01 00:24:47;;;;;;;7.47;2.60;;;;;;;;;;5229400;28;20025;-75
2023/05/01 00:27:19;;;;;;;5.13;2.13;;;;;;;;;;5230299;28;20021;-75
2023/05/01 00:29:50;;;;;;;5.93;2.73;;;;;;;;;;5228776;28;20028;-76
2023/05/01 00:32:21;;;;;;;5.23;2.30;;;;;;;;;;5230435;28;20413;-75
2023/05/01 00:34:53;;;;;;;4.40;2.37;;;;;;;;;;5230019;28;20026;-75
2023/05/01 00:37:25;;;;;;;4.23;2.10;;;;;;;;;;5230386;28;20021;-75
2023/05/01 00:39:56;;;;;;;7.87;2.50;;;;;;;;;;5229119;28;20526;-76
2023/05/01 00:42:32;;;;;;;13.03;2.90;;;;;;;;;;5230210;28;20017;-75
2023/05/01 00:45:05;;;;;;;5.27;2.67;;;;;;;;;;5229842;28;20029;-75
2023/05/01 00:47:36;;;;;;;3.00;1.93;;;;;;;;;;5230029;28;20039;-76
2023/05/01 00:50:08;;;;;;;4.20;2.27;;;;;;;;;;5230476;28;20017;-74
2023/05/01 00:52:39;;;;;;;3.33;2.23;;;;;;;;;;5230390;28;20043;-75
2023/05/01 00:55:11;;;;;;;5.57;2.00;;;;;;;;;;5229711;28;20026;-76
2023/05/01 00:57:42;;;;;;;5.23;2.30;;;;;;;;;;5230174;28;20025;-75
2023/05/01 01:00:15;;;;;;;4.63;2.40;;;;;;;;;;5230106;28;20382;-74
2023/05/01 01:02:47;;;;;;;8.37;3.50;;;;;;;;;;5229079;28;20029;-73
2023/05/01 01:05:20;;;;;;;3.73;2.30;;;;;;;;;;5230345;28;20772;-74
2023/05/01 01:08:16;;;;;;;4.03;2.63;;;;;;;;;;5220866;28;20022;-74
2023/05/01 01:10:52;;;;;;;4.50;2.40;;;;;;;;;;5208958;28;20026;-74
2023/05/01 01:13:23;;;;;;;6.97;2.83;;;;;;;;;;5208220;28;20036;-74
2023/05/01 01:16:07;;;;;;;5.60;2.70;;;;;;;;;;5210076;28;20022;-75
2023/05/01 01:18:56;;;;;;;6.13;2.45;;;;;;;;;;5209684;28;20029;-75
2023/05/01 01:21:33;;;;;;;4.03;2.63;;;;;;;;;;5208842;28;20022;-75
2023/05/01 01:24:05;;;;;;;6.00;2.33;;;;;;;;;;5208768;28;20030;-75
2023/05/01 01:26:55;;;;;;;4.73;2.43;;;;;;;;;;5207858;28;20450;-76
2023/05/01 01:29:44;;;;;;;3.83;2.40;;;;;;;;;;5208920;28;20483;-75
2023/05/01 01:32:34;;;;;;;7.17;2.90;;;;;;;;;;5209007;28;20533;-74
2023/05/01 01:35:09;;;;;;;4.67;2.50;;;;;;;;;;5209352;28;20099;-75
2023/05/01 01:38:06;;;;;;;6.17;2.57;;;;;;;;;;5208498;28;20369;-73
2023/05/01 01:40:40;;;;;;;5.40;2.50;;;;;;;;;;5219827;28;20033;-74
2023/05/01 01:43:12;;;;;;;10.40;3.65;;;;;;;;;;5228853;28;20017;-75
2023/05/01 01:45:46;;;;;;;6.80;2.50;;;;;;;;;;5332176;27;20043;-75
2023/05/01 01:48:22;;;;;;;6.82;3.17;;;;;;;;;;5229126;28;20032;-75
2023/05/01 01:50:54;;;;;;;4.53;2.67;;;;;;;;;;5229500;28;20045;-74
2023/05/01 01:53:28;;;;;;;6.37;2.67;;;;;;;;;;5228949;28;20066;-75
2023/05/01 01:56:01;;;;;;;5.15;2.40;;;;;;;;;;5228521;28;20065;-75
2023/05/01 01:58:33;;;;;;;5.53;2.80;;;;;;;;;;5228528;28;20475;-75
2023/05/01 02:01:05;;;;;;;7.40;3.10;;;;;;;;;;5227797;28;20025;-74
2023/05/01 02:03:37;;;;;;;3.70;2.67;;;;;;;;;;5330960;27;20513;-74
2023/05/01 02:06:09;;;;;;;8.43;3.13;;;;;;;;;;5229335;28;20078;-75
2023/05/01 02:08:41;;;;;;;7.57;2.63;;;;;;;;;;5227121;28;20032;-74
2023/05/01 02:11:14;;;;;;;5.93;2.93;;;;;;;;;;5228155;28;20461;-74
2023/05/01 02:13:46;;;;;;;7.97;3.10;;;;;;;;;;5229000;28;20037;-75
2023/05/01 02:16:18;;;;;;;4.17;2.57;;;;;;;;;;5228366;28;20392;-75
2023/05/01 02:18:50;;;;;;;5.97;3.20;;;;;;;;;;5228638;28;20073;-76
2023/05/01 02:21:22;;;;;;;5.73;3.27;;;;;;;;;;5228058;28;20021;-75
2023/05/01 02:23:53;;;;;;;10.00;3.50;;;;;;;;;;5229379;28;20017;-74
2023/05/01 02:26:25;;;;;;;6.13;2.93;;;;;;;;;;5234741;28;20391;-74
2023/05/01 02:28:58;;;;;;;5.30;3.07;;;;;;;;;;5235510;28;20456;-75
2023/05/01 02:31:29;;;;;;;7.00;3.77;;;;;;;;;;5234900;28;20419;-75
2023/05/01 02:34:00;;;;;;;7.33;3.70;;;;;;;;;;5235181;28;20105;-75
2023/05/01 02:36:32;;;;;;;5.37;3.00;;;;;;;;;;5234563;28;20022;-75
2023/05/01 02:39:03;;;;;;;7.27;3.73;;;;;;;;;;5234791;28;20009;-74
2023/05/01 02:41:35;;;;;;;6.83;3.07;;;;;;;;;;5233153;27;20657;-75
2023/05/01 02:44:08;;;;;;;8.43;3.37;;;;;;;;;;5234855;28;20010;-75
2023/05/01 02:46:42;;;;;;;5.93;3.40;;;;;;;;;;5234976;28;20033;-75
2023/05/01 02:49:13;;;;;;;5.13;3.33;;;;;;;;;;5337432;27;20026;-75
2023/05/01 02:51:45;;;;;;;5.63;2.93;;;;;;;;;;5233878;28;20033;-75
2023/05/01 02:54:16;;;;;;;8.80;3.43;;;;;;;;;;5233528;28;20017;-76
2023/05/01 02:56:48;;;;;;;4.03;3.23;;;;;;;;;;5235225;28;20496;-74
2023/05/01 02:59:19;;;;;;;6.83;3.50;;;;;;;;;;5233127;28;20643;-75
2023/05/01 03:01:50;;;;;;;7.63;3.50;;;;;;;;;;5233603;28;20200;-75
2023/05/01 03:04:21;;;;;;;7.37;4.17;;;;;;;;;;5234753;28;20021;-75
2023/05/01 03:06:53;;;;;;;5.10;3.60;;;;;;;;;;5232699;28;20075;-75
2023/05/01 03:09:24;;;;;;;9.30;3.70;;;;;;;;;;5233423;28;20042;-76
2023/05/01 03:11:56;;;;;;;9.07;3.77;;;;;;;;;;5234367;28;20036;-75
2023/05/01 03:14:28;;;;;;;8.50;3.57;;;;;;;;;;5234914;28;20093;-76
2023/05/01 03:16:59;;;;;;;6.70;3.70;;;;;;;;;;5234498;28;20095;-75
2023/05/01 03:19:30;;;;;;;7.47;3.67;;;;;;;;;;5232840;28;20153;-75
2023/05/01 03:22:02;;;;;;;8.37;3.97;;;;;;;;;;5234283;28;20025;-75
2023/05/01 03:24:34;;;;;;;7.83;3.50;;;;;;;;;;5233606;28;20017;-75
2023/05/01 03:27:06;;;;;;;5.90;3.47;;;;;;;;;;5234357;28;20021;-75
2023/05/01 03:29:37;;;;;;;6.33;3.63;;;;;;;;;;5232554;28;20082;-75
2023/05/01 03:32:08;;;;;;;11.33;4.80;;;;;;;;;;5234214;28;20049;-75
2023/05/01 03:34:40;;;;;;;8.17;4.47;;;;;;;;;;5233952;28;20025;-75
2023/05/01 03:37:11;;;;;;;7.73;3.93;;;;;;;;;;5229441;28;20021;-74
2023/05/01 03:39:42;;;;;;;7.30;4.37;;;;;;;;;;5229276;28;20025;-75
2023/05/01 03:42:13;;;;;;;7.10;4.03;;;;;;;;;;5229450;28;20021;-75
2023/05/01 03:44:44;;;;;;;8.53;3.77;;;;;;;;;;5229308;28;20036;-75
2023/05/01 03:47:16;;;;;;;11.57;4.33;;;;;;;;;;5230448;28;20477;-75
2023/05/01 03:49:47;;;;;;;6.90;3.73;;;;;;;;;;5230873;28;20117;-75
2023/05/01 03:52:18;;;;;;;16.93;5.53;;;;;;;;;;5229986;28;20033;-75
2023/05/01 03:54:49;;;;;;;8.30;4.30;;;;;;;;;;5230035;28;20028;-75
2023/05/01 03:57:22;;;;;;;7.73;3.70;;;;;;;;;;5228722;28;20053;-76
2023/05/01 03:59:53;;;;;;;10.33;4.30;;;;;;;;;;5230534;28;20079;-75
2023/05/01 04:02:24;;;;;;;7.00;4.00;;;;;;;;;;5229826;28;20031;-76
2023/05/01 04:04:56;;;;;;;6.80;3.97;;;;;;;;;;5230599;28;20021;-75
2023/05/01 04:07:27;;;;;;;7.30;4.50;;;;;;;;;;5227779;28;20013;-75
2023/05/01 04:09:58;;;;;;;12.50;4.30;;;;;;;;;;5229498;28;20016;-75
2023/05/01 04:12:29;;;;;;;8.30;5.10;;;;;;;;;;5230028;28;20588;-75
2023/05/01 04:15:01;;;;;;;5.93;3.50;;;;;;;;;;5229964;28;20040;-75
2023/05/01 04:17:33;;;;;;;6.90;4.13;;;;;;;;;;5229898;28;20018;-75
2023/05/01 04:20:05;;;;;;;8.97;4.17;;;;;;;;;;5229931;28;20689;-75
2023/05/01 04:22:36;;;;;;;11.37;4.63;;;;;;;;;;5229847;28;20017;-75
2023/05/01 04:25:08;;;;;;;7.53;4.23;;;;;;;;;;5229002;28;20022;-75
2023/05/01 04:27:39;;;;;;;7.17;3.57;;;;;;;;;;5229729;28;20024;-76
2023/05/01 04:30:10;;;;;;;7.93;4.27;;;;;;;;;;5229151;28;20017;-74
2023/05/01 04:32:41;;;;;;;7.00;4.23;;;;;;;;;;5228535;28;20712;-75
2023/05/01 04:35:13;;;;;;;8.43;4.20;;;;;;;;;;5228446;28;20266;-74
2023/05/01 04:37:44;;;;;;;8.87;4.60;;;;;;;;;;5229384;28;20037;-76
2023/05/01 04:40:15;;;;;;;9.33;4.43;;;;;;;;;;5228834;28;20108;-76
2023/05/01 04:42:47;;;;;;;6.03;4.47;;;;;;;;;;5229579;28;20021;-76
2023/05/01 04:45:18;;;;;;;7.83;4.07;;;;;;;;;;5228529;28;20108;-76
2023/05/01 04:47:49;;;;;;;9.53;4.30;;;;;;;;;;5229171;28;20018;-76
2023/05/01 04:50:20;;;;;;;9.13;4.00;;;;;;;;;;5229340;28;20365;-76
2023/05/01 04:52:52;;;;;;;6.67;4.00;;;;;;;;;;5229341;28;20021;-76
2023/05/01 04:55:23;;;;;;;8.67;5.23;;;;;;;;;;5228126;28;20533;-76
2023/05/01 04:57:56;;;;;;;9.47;4.60;;;;;;;;;;5229419;28;20057;-76
2023/05/01 05:00:27;;;;;;;7.23;4.60;;;;;;;;;;5228870;28;20067;-76
2023/05/01 05:02:59;;;;;;;6.47;4.20;;;;;;;;;;5229547;28;20049;-75
2023/05/01 05:05:30;;;;;;;8.80;4.93;;;;;;;;;;5228699;28;20028;-75
2023/05/01 05:08:01;;;;;;;9.07;4.73;;;;;;;;;;5229415;28;20020;-75
2023/05/01 05:10:33;;;;;;;12.67;5.93;;;;;;;;;;5228151;28;20053;-75
2023/05/01 05:13:04;;;;;;;7.87;4.87;;;;;;;;;;5229548;28;20465;-75
2023/05/01 05:15:35;;;;;;;10.67;5.60;;;;;;;;;;5227195;28;20062;-74
2023/05/01 05:18:06;;;;;;;9.03;5.50;;;;;;;;;;5227886;28;20021;-74
2023/05/01 05:20:38;;;;;;;13.07;5.20;;;;;;;;;;5228766;28;20078;-74
2023/05/01 05:23:09;;;;;;;7.70;5.77;;;;;;;;;;5228128;28;20033;-75
2023/05/01 05:25:41;;;;;;;14.00;5.90;;;;;;;;;;5227776;28;20052;-75
2023/05/01 05:28:12;;;;;;;9.57;5.63;;;;;;;;;;5228765;28;20033;-75
2023/05/01 05:30:45;;;;;;;8.30;5.23;;;;;;;;;;5229035;28;20053;-75
2023/05/01 05:33:16;;;;;;;9.10;5.00;;;;;;;;;;5228316;28;20050;-75
2023/05/01 05:35:48;;;;;;;11.63;5.13;;;;;;;;;;5228930;28;20640;-75
2023/05/01 05:38:19;;;;;;;9.13;6.47;;;;;;;;;;5227836;28;20033;-75
2023/05/01 05:40:50;;;;;;;8.40;5.50;;;;;;;;;;5228967;28;20025;-75
2023/05/01 05:43:21;;;;;;;8.13;5.30;;;;;;;;;;5228504;28;20063;-74
2023/05/01 05:45:59;;;;;;;9.00;5.57;;;;;;;;;;5228568;28;20616;-75
2023/05/01 05:48:30;;;;;;;5.83;4.97;;;;;;;;;;5228549;28;20677;-76
2023/05/01 05:51:01;;;;;;;7.73;5.43;;;;;;;;;;5228771;28;20025;-75
2023/05/01 05:53:32;;;;;;;10.30;6.03;;;;;;;;;;5226175;28;20071;-75
2023/05/01 05:56:04;;;;;;;11.33;6.17;;;;;;;;;;5228631;28;20051;-74
2023/05/01 05:58:35;;;;;;;8.77;5.43;;;;;;;;;;5226578;28;20049;-75
2023/05/01 06:01:08;;;;;;;10.63;6.37;;;;;;;;;;5226872;28;20044;-74
2023/05/01 06:03:39;;;;;;;9.63;5.73;;;;;;;;;;5228287;28;20106;-75
2023/05/01 06:06:10;;;;;;;11.07;6.03;;;;;;;;;;5225988;28;20049;-75
2023/05/01 06:08:44;;;;;;;10.30;5.97;;;;;;;;;;5226630;28;20013;-74
2023/05/01 06:11:15;;;;;;;15.13;5.85;;;;;;;;;;5228365;28;20109;-74
2023/05/01 06:13:46;;;;;;;9.03;5.80;;;;;;;;;;5228147;28;20054;-74
2023/05/01 06:16:18;;;;;;;11.73;5.40;;;;;;;;;;5228374;28;20666;-74
2023/05/01 06:18:49;;;;;;;9.27;6.03;;;;;;;;;;5226574;28;20036;-74
2023/05/01 06:21:20;;;;;;;9.10;5.83;;;;;;;;;;5227935;28;20016;-75
2023/05/01 06:23:52;;;;;;;11.20;6.37;;;;;;;;;;5227148;28;20069;-74
2023/05/01 06:26:23;;;;;;;9.73;5.73;;;;;;;;;;5228190;28;20091;-74
2023/05/01 06:28:57;;;;;;;10.80;5.97;;;;;;;;;;5227857;28;20075;-75
2023/05/01 06:31:28;;;;;;;13.35;5.88;;;;;;;;;;5227648;28;20036;-75
2023/05/01 06:33:59;;;;;;;8.63;6.23;;;;;;;;;;5226690;28;20046;-74
2023/05/01 06:36:30;;;;;;;7.97;6.20;;;;;;;;;;5228012;28;20022;-75
2023/05/01 06:39:02;;;;;;;8.67;6.13;;;;;;;;;;5227540;28;20021;-75
2023/05/01 06:41:33;;;;;;;10.87;6.47;;;;;;;;;;5226940;28;20034;-76
2023/05/01 06:44:04;;;;;;;10.50;6.23;;;;;;;;;;5227905;28;20746;-76
2023/05/01 06:46:35;;;;;;;11.83;6.50;;;;;;;;;;5227353;28;20022;-74
2023/05/01 06:49:07;;;;;;;14.77;6.07;;;;;;;;;;5228283;28;20006;-75
2023/05/01 06:51:38;;;;;;;10.67;5.73;;;;;;;;;;5227420;28;20056;-74
2023/05/01 06:54:09;;;;;;;9.93;6.17;;;;;;;;;;5227273;28;20054;-74
2023/05/01 06:56:40;;;;;;;10.50;5.97;;;;;;;;;;5227812;28;20057;-75
2023/05/01 06:59:11;;;;;;;15.50;7.30;;;;;;;;;;5227145;28;20018;-74
2023/05/01 07:01:42;;;;;;;11.37;6.70;;;;;;;;;;5227614;28;20061;-74
2023/05/01 07:04:14;;;;;;;17.33;6.43;;;;;;;;;;5227334;28;20018;-75
2023/05/01 07:06:45;;;;;;;11.53;6.53;;;;;;;;;;5227735;28;20021;-75
2023/05/01 07:09:16;;;;;;;14.97;6.80;;;;;;;;;;5224629;28;20029;-75
2023/05/01 07:11:48;;;;;;;8.97;5.43;;;;;;;;;;5229637;28;20060;-74
2023/05/01 07:14:19;;;;;;;11.27;6.30;;;;;;;;;;5230611;28;20048;-75
2023/05/01 07:16:50;;;;;;;12.23;6.03;;;;;;;;;;5229374;28;20124;-75
2023/05/01 07:19:21;;;;;;;8.93;6.17;;;;;;;;;;5230838;28;20380;-75
2023/05/01 07:21:53;;;;;;;11.17;6.73;;;;;;;;;;5230689;28;20022;-74
2023/05/01 07:24:24;;;;;;;13.33;6.63;;;;;;;;;;5230198;28;20067;-73
2023/05/01 07:26:56;;;;;;;19.37;6.40;;;;;;;;;;5230304;28;20808;-75
2023/05/01 07:29:28;;;;;;;14.80;6.70;;;;;;;;;;5230369;28;20018;-75
2023/05/01 07:32:00;;;;;;;12.33;6.40;;;;;;;;;;5230098;28;20036;-75
2023/05/01 07:34:31;;;;;;;17.37;7.80;;;;;;;;;;5229215;28;20081;-75
2023/05/01 07:37:03;;;;;;;8.53;5.53;;;;;;;;;;5229390;28;20025;-75
2023/05/01 07:39:34;;;;;;;10.87;6.30;;;;;;;;;;5229327;28;20037;-74
2023/05/01 07:42:06;;;;;;;13.13;6.30;;;;;;;;;;5230741;28;20009;-75
2023/05/01 07:44:37;;;;;;;11.00;6.27;;;;;;;;;;5332759;27;20539;-74
2023/05/01 07:47:08;;;;;;;9.67;5.70;;;;;;;;;;5230864;28;20385;-75
2023/05/01 07:49:41;;;;;;;14.93;5.60;;;;;;;;;;5229895;28;20082;-76
2023/05/01 07:52:12;;;;;;;16.00;6.83;;;;;;;;;;5230450;28;20013;-75
2023/05/01 07:54:47;;;;;;;10.60;5.47;;;;;;;;;;5229560;28;20017;-75
2023/05/01 07:57:19;;;;;;;13.97;6.07;;;;;;;;;;5230208;28;20450;-75
2023/05/01 07:59:56;;;;;;;10.87;6.23;;;;;;;;;;5229989;28;20024;-75
2023/05/01 08:02:27;;;;;;;8.37;5.50;;;;;;;;;;5228789;28;20022;-75
2023/05/01 08:04:58;;;;;;;9.57;5.47;;;;;;;;;;5230007;28;20021;-75
2023/05/01 08:07:30;;;;;;;10.37;5.50;;;;;;;;;;5230007;28;20026;-75
2023/05/01 08:10:01;;;;;;;10.60;5.80;;;;;;;;;;5229492;28;20345;-75
2023/05/01 08:12:33;;;;;;;10.10;6.22;;;;;;;;;;5229405;28;20036;-75
2023/05/01 08:15:04;;;;;;;9.13;5.90;;;;;;;;;;5230249;28;20022;-75
2023/05/01 08:17:35;;;;;;;12.65;5.97;;;;;;;;;;5228095;28;20086;-76
2023/05/01 08:20:07;;;;;;;12.68;6.60;;;;;;;;;;5230134;28;20108;-76
2023/05/01 08:22:38;;;;;;;11.40;5.30;;;;;;;;;;5227917;28;20365;-75
2023/05/01 08:25:10;;;;;;;11.48;6.55;;;;;;;;;;5229886;28;20021;-76
2023/05/01 08:27:41;;;;;;;10.65;5.72;;;;;;;;;;5229088;28;20013;-74
2023/05/01 08:30:13;;;;;;;7.35;5.13;;;;;;;;;;5229790;28;20045;-73
2023/05/01 08:32:44;;;;;;;10.10;5.65;;;;;;;;;;5230098;28;20048;-75
2023/05/01 08:35:16;;;;;;;12.52;5.60;;;;;;;;;;5227876;28;20025;-75
2023/05/01 08:37:47;;;;;;;10.25;5.65;;;;;;;;;;5229001;28;20017;-76
2023/05/01 08:40:18;;;;;;;6.13;4.38;;;;;;;;;;5229044;28;20029;-75
2023/05/01 08:42:50;;;;;;;10.35;4.95;;;;;;;;;;5229598;28;20453;-76
2023/05/01 08:45:22;;;;;;;7.93;4.78;;;;;;;;;;5228041;28;20515;-75
2023/05/01 08:47:54;;;;;;;11.32;5.35;;;;;;;;;;5229686;28;20675;-75
2023/05/01 08:50:26;;;;;;;7.28;4.90;;;;;;;;;;5227951;28;20074;-75
2023/05/01 08:52:58;;;;;;;9.05;5.20;;;;;;;;;;5228512;28;20025;-76
2023/05/01 08:55:30;;;;;;;7.15;5.35;;;;;;;;;;5229481;28;20022;-76
2023/05/01 08:58:02;;;;;;;8.60;4.85;;;;;;;;;;5229364;28;20022;-75
2023/05/01 09:00:34;;;;;;;7.88;5.60;;;;;;;;;;5228151;28;20648;-75
2023/05/01 09:03:05;;;;;;;9.70;5.22;;;;;;;;;;5229214;28;20021;-75
2023/05/01 09:05:37;;;;;;;7.65;5.68;;;;;;;;;;5228997;28;20057;-75
2023/05/01 09:08:08;;;;;;;20.67;5.95;;;;;;;;;;5228302;28;20025;-75
2023/05/01 09:10:44;;;;;;;9.55;5.60;;;;;;;;;;5229023;28;20393;-76
2023/05/01 09:13:16;;;;;;;7.60;5.00;;;;;;;;;;5228262;28;20535;-75
2023/05/01 09:15:47;;;;;;;7.07;5.82;;;;;;;;;;5229678;28;20082;-75
2023/05/01 09:18:19;;;;;;;10.75;5.78;;;;;;;;;;5228460;28;20032;-76
2023/05/01 09:20:50;;;;;;;7.50;5.40;;;;;;;;;;5229071;28;20495;-76
2023/05/01 09:23:22;;;;;;;11.05;6.18;;;;;;;;;;5227781;28;20027;-75
2023/05/01 09:25:54;;;;;;;9.73;5.07;;;;;;;;;;5228715;28;20097;-76
2023/05/01 09:28:41;;;;;;;7.72;5.28;;;;;;;;;;5228894;28;20854;-76
2023/05/01 09:31:19;;;;;;;9.65;5.40;;;;;;;;;;5229447;28;20029;-76
2023/05/01 09:33:54;;;;;;;8.68;5.07;;;;;;;;;;5227696;28;20045;-75
2023/05/01 09:36:27;;;;;;;8.45;5.72;;;;;;;;;;5228429;28;20763;-75
2023/05/01 09:39:01;;;;;;;7.60;5.70;;;;;;;;;;5228716;28;20025;-75
2023/05/01 09:41:32;;;;;;;13.63;5.72;;;;;;;;;;5228983;28;20059;-75
2023/05/01 09:44:04;;;;;;;7.93;5.38;;;;;;;;;;5228768;28;20155;-75
2023/05/01 09:46:54;;;;;;;7.00;5.28;;;;;;;;;;5230140;28;20017;-75
2023/05/01 09:49:45;;;;;;;8.35;5.90;;;;;;;;;;5228420;28;20485;-74
2023/05/01 09:52:16;;;;;;;10.32;5.47;;;;;;;;;;5228506;28;20057;-76
2023/05/01 09:54:47;;;;;;;8.18;5.43;;;;;;;;;;5230757;28;20480;-75
2023/05/01 09:57:36;;;;;;;7.82;5.13;;;;;;;;;;5230116;28;20017;-75
2023/05/01 10:00:09;;;;;;;6.47;5.07;;;;;;;;;;5230400;28;20532;-76
2023/05/01 10:02:40;;;;;;;7.93;6.13;;;;;;;;;;5230218;28;20097;-75
2023/05/01 10:05:12;;;;;;;8.18;5.63;;;;;;;;;;5228693;28;20033;-76
2023/05/01 10:07:59;;;;;;;8.85;5.53;;;;;;;;;;5228643;28;20402;-74
2023/05/01 10:10:30;;;;;;;8.68;5.57;;;;;;;;;;5229698;28;20074;-76
2023/05/01 10:13:15;;;;;;;7.80;5.18;;;;;;;;;;5231389;28;20423;-76
2023/05/01 10:15:47;;;;;;;8.73;5.28;;;;;;;;;;5230942;28;20108;-75
2023/05/01 10:18:20;;;;;;;8.77;6.30;;;;;;;;;;5232187;28;20026;-76
2023/05/01 10:20:51;;;;;;;7.68;5.93;;;;;;;;;;5231600;28;20133;-75
2023/05/01 10:23:24;;;;;;;8.15;5.70;;;;;;;;;;5232669;28;20104;-76
2023/05/01 10:25:57;;;;;;;8.05;5.85;;;;;;;;;;5232027;28;20025;-75
2023/05/01 10:28:28;;;;;;;10.97;6.27;;;;;;;;;;5230857;28;20017;-76
2023/05/01 10:31:00;;;;;;;9.40;5.68;;;;;;;;;;5230281;28;20524;-75
2023/05/01 10:33:32;;;;;;;11.52;6.07;;;;;;;;;;5230845;28;20073;-76
2023/05/01 10:36:04;;;;;;;12.75;7.28;;;;;;;;;;5230672;28;20635;-75
2023/05/01 10:38:37;;;;;;;6.57;5.38;;;;;;;;;;5231924;28;20021;-75
2023/05/01 10:41:15;;;;;;;9.35;6.28;;;;;;;;;;5234576;28;20018;-75
2023/05/01 10:44:06;;;;;;;11.70;6.45;;;;;;;;;;5230712;28;20022;-75
2023/05/01 10:46:38;;;;;;;10.38;5.47;;;;;;;;;;5233179;28;20013;-75
2023/05/01 10:49:11;;;;;;;9.95;5.90;;;;;;;;;;5235468;28;20583;-74
2023/05/01 10:51:58;;;;;;;10.50;5.80;;;;;;;;;;5234443;28;20467;-75
2023/05/01 10:54:30;;;;;;;8.07;5.40;;;;;;;;;;5232429;28;20041;-74
2023/05/01 10:57:02;;;;;;;7.63;6.00;;;;;;;;;;5234377;28;20089;-76
2023/05/01 10:59:54;;;;;;;8.48;6.18;;;;;;;;;;5234131;28;20021;-76
2023/05/01 11:02:26;;;;;;;8.98;5.25;;;;;;;;;;5241696;27;20033;-75
2023/05/01 11:04:58;;;;;;;8.13;6.50;;;;;;;;;;5235213;28;20014;-75
2023/05/01 11:07:30;;;;;;;10.73;6.70;;;;;;;;;;5234383;28;20026;-76
2023/05/01 11:10:05;;;;;;;10.57;5.65;;;;;;;;;;5234667;28;20021;-75
2023/05/01 11:12:47;;;;;;;11.85;6.95;;;;;;;;;;5232442;28;20030;-75
2023/05/01 11:15:25;;;;;;;10.65;5.70;;;;;;;;;;5233213;28;20025;-74
2023/05/01 11:17:58;;;;;;;8.65;5.15;;;;;;;;;;5230926;28;20030;-75
2023/05/01 11:20:29;;;;;;;9.50;6.22;;;;;;;;;;5232390;28;20471;-74
2023/05/01 11:23:00;;;;;;;10.10;6.04;;;;;;;;;;5232014;28;20078;-78
2023/05/01 11:25:32;;;;;;;12.35;6.03;;;;;;;;;;5232178;28;20016;-77
2023/05/01 11:28:05;;;;;;;9.55;6.22;;;;;;;;;;5232514;28;20025;-76
2023/05/01 11:30:37;;;;;;;10.82;6.13;;;;;;;;;;5335067;27;20025;-76
2023/05/01 11:33:08;;;;;;;10.70;6.50;;;;;;;;;;5231798;28;20058;-77
2023/05/01 11:35:40;;;;;;;12.02;6.38;;;;;;;;;;5335293;27;20119;-77
2023/05/01 11:38:17;;;;;;;9.35;6.40;;;;;;;;;;5232196;28;20426;-76
2023/05/01 11:40:52;;;;;;;10.23;6.00;;;;;;;;;;5236609;28;20026;-76
2023/05/01 11:43:24;;;;;;;8.18;5.68;;;;;;;;;;5232333;28;20041;-76
2023/05/01 11:46:00;;;;;;;7.68;5.80;;;;;;;;;;5229742;28;20109;-76
2023/05/01 11:48:32;;;;;;;10.10;5.38;;;;;;;;;;5231256;28;20049;-77
2023/05/01 11:51:11;;;;;;;7.55;4.85;;;;;;;;;;5230663;28;20022;-76
2023/05/01 11:53:42;;;;;;;10.43;5.38;;;;;;;;;;5230329;28;20018;-76
2023/05/01 11:56:20;;;;;;;9.13;5.43;;;;;;;;;;5230160;28;20022;-74
2023/05/01 11:58:52;;;;;;;8.25;4.75;;;;;;;;;;5231042;28;20021;-75
2023/05/01 12:01:33;;;;;;;9.05;4.00;;;;;;;;;;5230693;28;20057;-76
2023/05/01 12:04:09;;;;;;;7.53;5.00;;;;;;;;;;5230253;28;20029;-77
2023/05/01 12:06:44;;;;;;;7.53;4.53;;;;;;;;;;5228807;28;20113;-75
2023/05/01 12:09:19;;;;;;;9.38;4.55;;;;;;;;;;5229973;28;20026;-75
2023/05/01 12:11:51;;;;;;;6.70;5.53;;;;;;;;;;5230243;28;20033;-76
2023/05/01 12:14:23;;;;;;;8.88;5.30;;;;;;;;;;5229232;28;20082;-76
2023/05/01 12:16:56;;;;;;;8.93;5.15;;;;;;;;;;5229950;28;20022;-76
2023/05/01 12:19:27;;;;;;;10.68;5.38;;;;;;;;;;5230069;28;20524;-76
2023/05/01 12:22:08;;;;;;;7.70;5.47;;;;;;;;;;5332113;27;20021;-76
2023/05/01 12:24:47;;;;;;;16.55;5.20;;;;;;;;;;5230553;28;20048;-76
2023/05/01 12:27:19;;;;;;;11.05;4.68;;;;;;;;;;5229842;28;20441;-76
2023/05/01 12:29:50;;;;;;;8.98;4.88;;;;;;;;;;5230289;28;20085;-76
2023/05/01 12:32:28;;;;;;;7.03;4.32;;;;;;;;;;5229723;28;20048;-75
2023/05/01 12:34:59;;;;;;;5.45;3.70;;;;;;;;;;5230546;28;20392;-75
2023/05/01 12:37:31;;;;;;;8.48;5.57;;;;;;;;;;5228680;28;20032;-76
2023/05/01 12:40:03;;;;;;;10.07;4.40;;;;;;;;;;5230180;28;20027;-76
2023/05/01 12:42:34;;;;;;;4.60;3.30;;;;;;;;;;5228579;28;20032;-76
2023/05/01 12:45:05;;;;;;;7.55;4.28;;;;;;;;;;5229850;28;20392;-75
2023/05/01 12:47:37;;;;;;;4.65;3.15;;;;;;;;;;5229993;28;20028;-76
2023/05/01 12:50:08;;;;;;;8.95;3.38;;;;;;;;;;5227975;28;20017;-75
2023/05/01 12:52:40;;;;;;;9.65;4.00;;;;;;;;;;5229572;28;20037;-75
2023/05/01 12:55:11;;;;;;;7.68;4.10;;;;;;;;;;5229345;28;20021;-76
2023/05/01 12:57:53;;;;;;;9.60;4.10;;;;;;;;;;5230014;28;20021;-75
2023/05/01 13:00:24;;;;;;;8.95;4.32;;;;;;;;;;5228383;28;20021;-76
2023/05/01 13:03:01;;;;;;;6.60;4.45;;;;;;;;;;5228507;28;20105;-76
2023/05/01 13:05:32;;;;;;;6.75;5.30;;;;;;;;;;5230706;28;20026;-76
2023/05/01 13:08:03;;;;;;;7.88;5.65;;;;;;;;;;5229199;28;20018;-76
2023/05/01 13:10:34;;;;;;;8.32;4.78;;;;;;;;;;5229644;28;20128;-76
2023/05/01 13:13:06;;;;;;;5.93;4.60;;;;;;;;;;5228218;28;20028;-75
2023/05/01 13:15:37;;;;;;;7.53;4.80;;;;;;;;;;5229354;28;20025;-76
2023/05/01 13:18:09;;;;;;;7.70;4.40;;;;;;;;;;5229973;28;20381;-76
2023/05/01 13:20:41;;;;;;;7.97;4.45;;;;;;;;;;5229611;28;20025;-76
2023/05/01 13:23:12;;;;;;;9.10;4.57;;;;;;;;;;5227137;28;20032;-76
2023/05/01 13:25:45;;;;;;;10.40;4.05;;;;;;;;;;5229544;28;20014;-76
2023/05/01 13:28:16;;;;;;;8.88;4.65;;;;;;;;;;5227799;28;20152;-77
2023/05/01 13:30:48;;;;;;;6.07;4.05;;;;;;;;;;5229277;28;20025;-76
2023/05/01 13:33:19;;;;;;;6.15;4.18;;;;;;;;;;5228048;28;20139;-77
2023/05/01 13:35:50;;;;;;;6.85;3.05;;;;;;;;;;5229117;28;20476;-76
2023/05/01 13:38:23;;;;;;;5.32;3.42;;;;;;;;;;5227417;28;20480;-75
2023/05/01 13:40:55;;;;;;;11.20;3.47;;;;;;;;;;5229361;28;20433;-75
2023/05/01 13:43:26;;;;;;;5.95;3.28;;;;;;;;;;5228744;28;20010;-75
2023/05/01 13:45:59;;;;;;;6.10;3.10;;;;;;;;;;5227577;28;20021;-74
2023/05/01 13:48:30;;;;;;;4.20;2.72;;;;;;;;;;5228755;28;20021;-76
2023/05/01 13:51:02;;;;;;;3.95;1.92;;;;;;;;;;5228804;28;20081;-75
2023/05/01 13:53:33;;;;;;;4.82;2.00;;;;;;;;;;5226406;28;20674;-75
2023/05/01 13:56:05;;;;;;;3.50;1.77;;;;;;;;;;5228163;28;20097;-75
2023/05/01 13:58:36;;;;;;;3.92;1.75;;;;;;;;;;5228763;28;20422;-76
2023/05/01 14:01:15;;;;;;;4.80;2.10;;;;;;;;;;5228023;28;20101;-76
2023/05/01 14:03:47;;;;;;;4.57;1.70;;;;;;;;;;5228565;28;20044;-76
2023/05/01 14:06:19;;;;;;;3.90;1.95;;;;;;;;;;5228122;28;20010;-75
2023/05/01 14:08:51;;;;;;;3.30;1.48;;;;;;;;;;5227848;28;20443;-75
2023/05/01 14:11:22;;;;;;;5.38;1.90;;;;;;;;;;5227680;28;20089;-76
2023/05/01 14:13:55;;;;;;;3.58;1.55;;;;;;;;;;5227092;28;20045;-76
2023/05/01 14:16:27;;;;;;;2.88;1.40;;;;;;;;;;5226837;28;20028;-76
2023/05/01 14:18:58;;;;;;;5.63;1.20;;;;;;;;;;5228064;28;20647;-75
2023/05/01 14:21:30;;;;;;;4.10;1.88;;;;;;;;;;5227312;28;20730;-76
2023/05/01 14:24:03;;;;;;;5.20;1.88;;;;;;;;;;5225590;28;20021;-75
2023/05/01 14:26:37;;;;;;;2.90;1.50;;;;;;;;;;5228073;28;20017;-74
2023/05/01 14:29:15;;;;;;;4.65;1.40;;;;;;;;;;5228145;28;20381;-76
2023/05/01 14:31:47;;;;;;;5.10;1.63;;;;;;;;;;5227999;28;20032;-75
2023/05/01 14:34:19;;;;;;;2.42;1.40;;;;;;;;;;5227333;28;20046;-76
2023/05/01 14:36:50;;;;;;;6.47;1.58;;;;;;;;;;5227589;28;20049;-76
2023/05/01 14:39:21;;;;;;;3.50;1.30;;;;;;;;;;5227203;28;20018;-75
2023/05/01 14:41:54;;;;;;;5.25;1.70;;;;;;;;;;5228085;28;20648;-75
2023/05/01 14:44:29;;;;;;;4.72;1.83;;;;;;;;;;5226021;28;20022;-76
2023/05/01 14:47:00;;;;;;;3.20;1.38;;;;;;;;;;5226463;28;20589;-76
2023/05/01 14:49:32;;;;;;;3.45;1.60;;;;;;;;;;5227771;28;20077;-75
2023/05/01 14:52:03;;;;;;;3.53;1.30;;;;;;;;;;5226891;28;20022;-75
2023/05/01 14:54:43;;;;;;;5.85;1.70;;;;;;;;;;5228088;28;20037;-77
2023/05/01 14:57:14;;;;;;;4.93;1.88;;;;;;;;;;5227340;28;20022;-75
2023/05/01 14:59:45;;;;;;;4.57;1.70;;;;;;;;;;5227612;28;20028;-76
2023/05/01 15:02:17;;;;;;;5.07;2.58;;;;;;;;;;5226962;28;20044;-76
2023/05/01 15:04:48;;;;;;;4.07;2.33;;;;;;;;;;5227909;28;20025;-76
2023/05/01 15:07:19;;;;;;;4.60;2.30;;;;;;;;;;5226069;28;20016;-75
2023/05/01 15:09:51;;;;;;;6.47;2.03;;;;;;;;;;5228276;28;20067;-75
2023/05/01 15:12:22;;;;;;;4.75;2.20;;;;;;;;;;5225862;28;20037;-75
2023/05/01 15:14:53;;;;;;;3.72;2.30;;;;;;;;;;5227509;28;20374;-74